Time;durP1;ratioP1;P1;durP2;ratioP2;P2;SDS_P1;SDS_P2;PMS_P1;PMS_P2;Temp;Humidity;BMP_temperature;BMP_pressure;BME280_temperature;BME280_humidity;BME280_pressure;Samples;Min_cycle;Max_cycle;Signal;HPM_P1;HPM_P2
2021/04/26 00:00:16;;;;;;;7.32;4.03;;;10.00;44.30;;;;;;5026486;28;20028;-68
2021/04/26 00:02:42;;;;;;;7.68;3.92;;;10.00;44.90;;;;;;5060070;28;20048;-68
2021/04/26 00:05:09;;;;;;;6.88;4.00;;;9.90;45.40;;;;;;5061376;28;20037;-68
2021/04/26 00:07:34;;;;;;;6.63;3.95;;;9.90;45.80;;;;;;5061169;28;20340;-68
2021/04/26 00:10:00;;;;;;;7.43;3.63;;;9.90;45.10;;;;;;5060884;28;20039;-67
2021/04/26 00:12:25;;;;;;;8.60;3.67;;;9.90;45.00;;;;;;5062981;28;20044;-68
2021/04/26 00:14:51;;;;;;;9.05;4.15;;;9.90;44.70;;;;;;5061830;28;20079;-68
2021/04/26 00:17:17;;;;;;;6.22;4.07;;;9.90;44.80;;;;;;5061156;28;20037;-67
2021/04/26 00:19:42;;;;;;;9.38;4.10;;;9.90;44.50;;;;;;5060686;28;20052;-68
2021/04/26 00:22:08;;;;;;;12.27;3.97;;;9.90;44.70;;;;;;5060838;28;20033;-68
2021/04/26 00:24:34;;;;;;;6.95;3.65;;;10.00;44.70;;;;;;5061910;28;20157;-67
2021/04/26 00:26:59;;;;;;;8.00;4.22;;;10.00;44.40;;;;;;5046539;28;20029;-68
2021/04/26 00:29:25;;;;;;;9.13;4.00;;;9.90;44.60;;;;;;5061926;28;20053;-68
2021/04/26 00:31:51;;;;;;;8.05;4.53;;;9.90;44.50;;;;;;5060792;28;20143;-67
2021/04/26 00:34:16;;;;;;;8.35;4.22;;;9.90;44.80;;;;;;5036979;28;20034;-68
2021/04/26 00:36:42;;;;;;;7.68;4.10;;;10.00;44.80;;;;;;5042864;28;20031;-68
2021/04/26 00:39:07;;;;;;;7.88;4.20;;;9.90;44.40;;;;;;5062438;28;20047;-68
2021/04/26 00:41:33;;;;;;;8.90;3.95;;;9.90;44.30;;;;;;5060152;28;20059;-68
2021/04/26 00:43:58;;;;;;;7.47;4.00;;;9.90;44.40;;;;;;5047875;28;20041;-68
2021/04/26 00:46:24;;;;;;;7.95;4.00;;;9.90;44.50;;;;;;5028763;28;20034;-68
2021/04/26 00:48:49;;;;;;;7.88;4.32;;;9.90;44.70;;;;;;5057339;28;20248;-68
2021/04/26 00:51:15;;;;;;;11.63;4.30;;;9.90;44.30;;;;;;5043430;28;20029;-67
2021/04/26 00:53:40;;;;;;;6.70;4.10;;;9.80;44.20;;;;;;5062952;28;20055;-68
2021/04/26 00:56:06;;;;;;;8.30;4.40;;;9.90;44.50;;;;;;5065210;28;20037;-67
2021/04/26 00:58:31;;;;;;;8.05;4.25;;;9.90;44.90;;;;;;5065501;28;20027;-68
2021/04/26 01:00:57;;;;;;;9.88;4.50;;;9.90;44.80;;;;;;5059795;28;20049;-67
2021/04/26 01:03:22;;;;;;;7.50;3.83;;;9.80;45.00;;;;;;5046859;28;20037;-68
2021/04/26 01:05:48;;;;;;;8.68;4.40;;;9.80;44.70;;;;;;5044337;28;20220;-68
2021/04/26 01:08:14;;;;;;;8.02;4.35;;;9.70;44.50;;;;;;5060028;28;20088;-68
2021/04/26 01:10:39;;;;;;;9.52;4.40;;;9.60;44.90;;;;;;5055060;28;20083;-68
2021/04/26 01:13:14;;;;;;;8.20;4.45;;;9.60;44.90;;;;;;5029578;28;20026;-67
2021/04/26 01:15:49;;;;;;;7.82;4.45;;;9.60;45.10;;;;;;5030005;28;20115;-67
2021/04/26 01:18:25;;;;;;;8.23;4.63;;;9.60;45.50;;;;;;5065846;28;20021;-67
2021/04/26 01:21:02;;;;;;;7.25;4.18;;;9.60;46.00;;;;;;5043673;28;20236;-67
2021/04/26 01:23:49;;;;;;;7.43;4.47;;;9.50;46.00;;;;;;5044220;28;20206;-68
2021/04/26 01:26:37;;;;;;;9.88;4.47;;;9.60;46.20;;;;;;5059633;28;20036;-67
2021/04/26 01:29:24;;;;;;;12.07;4.90;;;9.50;46.30;;;;;;5064226;28;20055;-68
2021/04/26 01:32:12;;;;;;;9.73;4.72;;;9.60;46.20;;;;;;5063996;28;20041;-67
2021/04/26 01:34:37;;;;;;;7.75;4.47;;;9.50;46.10;;;;;;5054572;28;20025;-67
2021/04/26 01:37:03;;;;;;;9.05;4.40;;;9.60;46.20;;;;;;5048617;28;20039;-68
2021/04/26 01:39:29;;;;;;;7.95;4.57;;;9.50;46.00;;;;;;5063791;28;20356;-68
2021/04/26 01:41:54;;;;;;;7.45;4.47;;;9.50;45.90;;;;;;5032216;28;20354;-67
2021/04/26 01:44:20;;;;;;;7.35;4.50;;;9.40;45.70;;;;;;5043544;28;20037;-67
2021/04/26 01:46:45;;;;;;;7.10;4.28;;;9.40;45.60;;;;;;5055466;28;20033;-67
2021/04/26 01:49:11;;;;;;;7.43;4.40;;;9.40;45.60;;;;;;5063213;28;20029;-68
2021/04/26 01:51:37;;;;;;;9.27;4.32;;;9.40;46.00;;;;;;5046549;28;20039;-68
2021/04/26 01:54:03;;;;;;;7.10;4.20;;;9.40;45.80;;;;;;5065195;28;20092;-68
2021/04/26 01:56:28;;;;;;;10.35;4.50;;;9.30;45.50;;;;;;5029809;28;20340;-68
2021/04/26 01:58:54;;;;;;;8.82;4.38;;;9.30;45.70;;;;;;5038901;28;20351;-68
2021/04/26 02:01:21;;;;;;;7.90;4.30;;;9.20;45.50;;;;;;5043354;28;20104;-68
2021/04/26 02:03:50;;;;;;;9.65;4.82;;;9.20;45.50;;;;;;5046082;28;20037;-67
2021/04/26 02:06:15;;;;;;;9.27;4.60;;;9.00;45.40;;;;;;5047686;28;20059;-68
2021/04/26 02:08:41;;;;;;;7.72;4.88;;;9.00;45.70;;;;;;5043236;28;20045;-68
2021/04/26 02:11:11;;;;;;;8.40;4.55;;;9.00;45.90;;;;;;5042698;28;20093;-68
2021/04/26 02:13:37;;;;;;;10.25;5.03;;;8.90;45.80;;;;;;5027050;28;20387;-67
2021/04/26 02:16:03;;;;;;;7.25;4.70;;;8.80;45.90;;;;;;5027863;28;20038;-68
2021/04/26 02:18:28;;;;;;;8.55;4.80;;;8.90;46.10;;;;;;5042879;28;20225;-68
2021/04/26 02:20:54;;;;;;;7.68;4.72;;;8.80;46.00;;;;;;5065270;28;20134;-67
2021/04/26 02:23:19;;;;;;;10.45;4.60;;;8.80;46.30;;;;;;5062434;28;20040;-68
2021/04/26 02:25:45;;;;;;;9.38;4.72;;;8.80;46.00;;;;;;5034924;28;20037;-68
2021/04/26 02:28:13;;;;;;;7.75;4.38;;;8.80;46.30;;;;;;5048704;28;20033;-67
2021/04/26 02:30:38;;;;;;;8.32;4.22;;;8.70;46.30;;;;;;5062364;28;20240;-68
2021/04/26 02:33:08;;;;;;;9.00;4.63;;;8.60;46.60;;;;;;5064446;28;20036;-67
2021/04/26 02:35:37;;;;;;;11.40;5.00;;;8.70;46.30;;;;;;5043316;28;20375;-67
2021/04/26 02:38:04;;;;;;;11.35;4.75;;;8.70;46.20;;;;;;5055609;28;20037;-67
2021/04/26 02:40:42;;;;;;;11.90;4.90;;;8.60;46.60;;;;;;5045580;28;20373;-67
2021/04/26 02:43:08;;;;;;;12.70;4.68;;;8.60;46.50;;;;;;5061586;28;20032;-67
2021/04/26 02:45:35;;;;;;;7.30;4.45;;;8.60;46.70;;;;;;5061101;28;20070;-67
2021/04/26 02:48:00;;;;;;;9.50;5.13;;;8.50;46.70;;;;;;5045238;28;20083;-70
2021/04/26 02:50:27;;;;;;;10.27;4.90;;;8.50;46.90;;;;;;5060203;28;20041;-71
2021/04/26 02:52:53;;;;;;;8.68;4.40;;;8.40;47.10;;;;;;5042035;28;20079;-68
2021/04/26 02:55:20;;;;;;;8.98;5.05;;;8.50;47.00;;;;;;5041702;28;20336;-71
2021/04/26 02:57:46;;;;;;;8.63;5.05;;;8.50;46.90;;;;;;5044519;28;20084;-71
2021/04/26 03:00:14;;;;;;;8.15;4.85;;;8.50;46.90;;;;;;5063627;28;20255;-71
2021/04/26 03:02:41;;;;;;;8.75;4.97;;;8.50;46.80;;;;;;5045750;28;20044;-72
2021/04/26 03:05:07;;;;;;;9.23;5.22;;;8.40;47.30;;;;;;5045455;28;20040;-71
2021/04/26 03:07:34;;;;;;;10.07;5.15;;;8.40;47.40;;;;;;5061706;28;20058;-72
2021/04/26 03:10:01;;;;;;;9.15;5.32;;;8.40;47.60;;;;;;5041840;28;20033;-71
2021/04/26 03:12:29;;;;;;;10.23;5.07;;;8.40;48.20;;;;;;5025333;28;20048;-71
2021/04/26 03:14:55;;;;;;;10.55;4.68;;;8.40;48.40;;;;;;5063390;28;20021;-71
2021/04/26 03:17:20;;;;;;;8.82;5.00;;;8.40;47.90;;;;;;5044363;28;20052;-71
2021/04/26 03:19:46;;;;;;;10.18;5.32;;;8.30;47.80;;;;;;5045003;28;20041;-71
2021/04/26 03:22:11;;;;;;;8.82;5.40;;;8.30;48.10;;;;;;5045173;28;20343;-71
2021/04/26 03:24:37;;;;;;;8.23;4.90;;;8.20;48.00;;;;;;5060048;28;20075;-72
2021/04/26 03:27:03;;;;;;;8.43;4.57;;;8.20;48.00;;;;;;5044578;28;20022;-72
2021/04/26 03:29:28;;;;;;;7.25;4.97;;;8.20;48.10;;;;;;5024946;28;20033;-71
2021/04/26 03:31:54;;;;;;;8.00;4.88;;;8.20;48.10;;;;;;5053599;28;20044;-72
2021/04/26 03:34:19;;;;;;;9.07;4.68;;;8.20;48.10;;;;;;5061537;28;20029;-72
2021/04/26 03:36:45;;;;;;;11.70;5.25;;;8.20;48.90;;;;;;5042089;28;20055;-72
2021/04/26 03:39:12;;;;;;;9.20;5.20;;;8.20;48.80;;;;;;5043383;28;20313;-72
2021/04/26 03:41:38;;;;;;;12.73;5.22;;;8.20;49.20;;;;;;4992550;28;20033;-72
2021/04/26 03:44:04;;;;;;;10.65;5.40;;;8.20;49.30;;;;;;5054903;28;20044;-72
2021/04/26 03:46:30;;;;;;;8.13;4.97;;;8.30;49.50;;;;;;5061152;28;20048;-70
2021/04/26 03:48:55;;;;;;;11.18;5.63;;;8.30;49.60;;;;;;5062227;28;20297;-71
2021/04/26 03:51:21;;;;;;;12.20;5.28;;;8.30;49.80;;;;;;5062846;28;20092;-70
2021/04/26 03:53:46;;;;;;;9.38;5.25;;;8.40;49.80;;;;;;5041215;28;20030;-72
2021/04/26 03:56:12;;;;;;;9.80;5.20;;;8.30;49.30;;;;;;5042506;28;20101;-71
2021/04/26 03:58:37;;;;;;;11.05;6.18;;;8.30;49.70;;;;;;5041297;28;20168;-70
2021/04/26 04:01:03;;;;;;;10.65;5.10;;;8.30;49.70;;;;;;5047394;28;20029;-70
2021/04/26 04:03:28;;;;;;;10.40;5.75;;;8.20;50.30;;;;;;5044521;28;20096;-71
2021/04/26 04:05:54;;;;;;;11.10;5.20;;;8.20;50.50;;;;;;5063773;28;20033;-72
2021/04/26 04:08:21;;;;;;;11.02;5.78;;;8.20;50.60;;;;;;5028903;28;20358;-71
2021/04/26 04:10:47;;;;;;;10.95;5.35;;;8.30;50.50;;;;;;5053086;28;20037;-71
2021/04/26 04:13:12;;;;;;;12.60;5.80;;;8.30;50.50;;;;;;5062031;28;20049;-71
2021/04/26 04:15:38;;;;;;;10.45;5.78;;;8.20;50.20;;;;;;5060800;28;20040;-71
2021/04/26 04:18:03;;;;;;;17.25;6.13;;;8.20;50.50;;;;;;5062908;28;20025;-71
2021/04/26 04:20:29;;;;;;;11.43;5.78;;;8.20;50.20;;;;;;5060340;28;20241;-71
2021/04/26 04:22:54;;;;;;;12.15;5.93;;;8.10;50.20;;;;;;5048466;28;20042;-71
2021/04/26 04:25:20;;;;;;;14.00;6.22;;;8.00;50.20;;;;;;5031605;28;20045;-71
2021/04/26 04:27:45;;;;;;;17.55;5.82;;;8.00;50.80;;;;;;5062898;28;20438;-71
2021/04/26 04:30:13;;;;;;;16.52;6.13;;;8.10;50.60;;;;;;5067509;28;20074;-71
2021/04/26 04:32:38;;;;;;;20.52;6.22;;;8.10;50.80;;;;;;5044227;28;20112;-71
2021/04/26 04:35:04;;;;;;;12.10;5.57;;;8.10;50.80;;;;;;5044577;28;20033;-71
2021/04/26 04:37:30;;;;;;;10.82;5.78;;;8.20;50.90;;;;;;5053112;28;20041;-72
2021/04/26 04:39:55;;;;;;;12.60;5.07;;;8.10;50.10;;;;;;5060435;28;20044;-71
2021/04/26 04:42:21;;;;;;;14.02;6.55;;;8.20;50.50;;;;;;5029627;28;20025;-71
2021/04/26 04:44:47;;;;;;;10.75;5.55;;;8.20;50.20;;;;;;5063439;28;20104;-69
2021/04/26 04:47:12;;;;;;;16.45;5.90;;;8.30;50.10;;;;;;5064614;28;20057;-70
2021/04/26 04:49:38;;;;;;;15.38;5.70;;;8.30;49.60;;;;;;5064082;28;20370;-71
2021/04/26 04:52:04;;;;;;;14.10;6.32;;;8.30;49.40;;;;;;5059100;28;20056;-72
2021/04/26 04:54:29;;;;;;;10.30;5.82;;;8.30;49.80;;;;;;5045683;28;20041;-72
2021/04/26 04:56:55;;;;;;;11.27;5.82;;;8.30;49.50;;;;;;5049014;28;20024;-71
2021/04/26 04:59:21;;;;;;;12.15;5.65;;;8.30;49.10;;;;;;5047822;28;20037;-70
2021/04/26 05:01:47;;;;;;;12.40;5.55;;;8.30;48.80;;;;;;5064122;28;20036;-71
2021/04/26 05:04:12;;;;;;;10.60;6.05;;;8.20;48.50;;;;;;5064056;28;20033;-71
2021/04/26 05:06:38;;;;;;;11.63;5.63;;;8.20;48.50;;;;;;5063969;28;20338;-71
2021/04/26 05:09:07;;;;;;;9.65;5.88;;;8.20;48.40;;;;;;5048981;28;20044;-72
2021/04/26 05:11:32;;;;;;;8.18;5.50;;;8.20;48.70;;;;;;5063803;28;20029;-72
2021/04/26 05:13:58;;;;;;;10.35;5.50;;;8.20;48.40;;;;;;5063873;28;20036;-69
2021/04/26 05:16:27;;;;;;;10.20;5.88;;;8.10;48.30;;;;;;5065130;28;20212;-70
2021/04/26 05:18:53;;;;;;;13.25;5.70;;;8.00;48.30;;;;;;5047323;28;20084;-68
2021/04/26 05:21:19;;;;;;;9.27;5.60;;;8.00;48.10;;;;;;5065374;28;20052;-65
2021/04/26 05:23:44;;;;;;;10.48;5.28;;;8.00;47.50;;;;;;5065275;28;20316;-66
2021/04/26 05:26:10;;;;;;;14.73;5.90;;;8.00;47.70;;;;;;5049341;28;20038;-67
2021/04/26 05:28:35;;;;;;;9.98;5.97;;;7.90;47.60;;;;;;5017139;28;20040;-66
2021/04/26 05:31:01;;;;;;;11.70;5.63;;;7.90;47.70;;;;;;5044523;28;20022;-66
2021/04/26 05:33:27;;;;;;;13.60;5.78;;;7.90;47.90;;;;;;5043444;28;20037;-69
2021/04/26 05:35:52;;;;;;;10.23;5.55;;;7.90;47.90;;;;;;5028614;28;20032;-66
2021/04/26 05:38:18;;;;;;;10.80;5.57;;;7.90;47.80;;;;;;5044851;28;20061;-66
2021/04/26 05:40:47;;;;;;;9.77;5.20;;;7.90;48.00;;;;;;5053085;28;20075;-66
2021/04/26 05:43:13;;;;;;;12.07;5.80;;;8.00;48.00;;;;;;5064414;28;20037;-66
2021/04/26 05:45:39;;;;;;;10.52;5.18;;;8.10;47.90;;;;;;5063245;28;20247;-66
2021/04/26 05:48:05;;;;;;;9.95;5.82;;;8.10;47.70;;;;;;5048621;28;20219;-66
2021/04/26 05:50:31;;;;;;;12.90;6.00;;;8.10;47.50;;;;;;5063356;28;20221;-66
2021/04/26 05:52:58;;;;;;;13.63;6.32;;;8.10;47.70;;;;;;5063724;28;20071;-66
2021/04/26 05:55:24;;;;;;;10.77;5.63;;;8.10;47.40;;;;;;5056230;28;20029;-66
2021/04/26 05:57:49;;;;;;;8.38;5.10;;;7.90;47.40;;;;;;5047233;28;20263;-66
2021/04/26 06:00:16;;;;;;;10.65;5.80;;;8.00;47.80;;;;;;5066325;28;20247;-66
2021/04/26 06:02:41;;;;;;;13.82;6.03;;;8.00;47.50;;;;;;5045249;28;20045;-71
2021/04/26 06:05:08;;;;;;;14.80;6.05;;;8.10;47.60;;;;;;5056176;28;20052;-67
2021/04/26 06:07:34;;;;;;;10.15;5.55;;;8.10;47.50;;;;;;5062747;28;20029;-67
2021/04/26 06:09:59;;;;;;;13.15;5.95;;;8.10;47.30;;;;;;5041680;28;20037;-65
2021/04/26 06:12:25;;;;;;;12.07;5.68;;;8.20;47.30;;;;;;5045880;28;20056;-68
2021/04/26 06:14:50;;;;;;;9.63;5.28;;;8.30;47.00;;;;;;5063749;28;20104;-68
2021/04/26 06:17:16;;;;;;;12.23;5.40;;;8.30;47.10;;;;;;5048686;28;20045;-68
2021/04/26 06:19:41;;;;;;;13.50;5.38;;;8.30;47.50;;;;;;5053430;28;20236;-66
2021/04/26 06:22:07;;;;;;;10.60;5.95;;;8.40;47.00;;;;;;5062511;28;20331;-66
2021/04/26 06:24:33;;;;;;;12.60;5.53;;;8.40;47.00;;;;;;5063350;28;20040;-66
2021/04/26 06:26:59;;;;;;;8.05;5.47;;;8.50;46.90;;;;;;5065181;28;20025;-65
2021/04/26 06:29:24;;;;;;;15.20;7.18;;;8.60;46.70;;;;;;5046161;28;20055;-66
2021/04/26 06:31:50;;;;;;;11.13;5.32;;;8.70;47.10;;;;;;5055344;28;20033;-67
2021/04/26 06:34:15;;;;;;;10.23;5.82;;;8.60;47.20;;;;;;5045508;28;20036;-66
2021/04/26 06:36:41;;;;;;;11.57;5.35;;;8.80;46.70;;;;;;5061273;28;20247;-66
2021/04/26 06:39:07;;;;;;;10.00;5.20;;;8.90;46.60;;;;;;5027472;28;20021;-65
2021/04/26 06:41:32;;;;;;;7.95;5.03;;;9.10;46.50;;;;;;5060481;28;20339;-65
2021/04/26 06:43:58;;;;;;;14.45;5.15;;;9.20;45.90;;;;;;5062958;28;20048;-66
2021/04/26 06:46:23;;;;;;;10.63;5.13;;;9.30;45.90;;;;;;5062197;28;20197;-66
2021/04/26 06:48:49;;;;;;;10.77;5.32;;;9.50;45.60;;;;;;5061770;28;20036;-65
2021/04/26 06:51:14;;;;;;;10.57;5.25;;;9.50;44.80;;;;;;5065136;28;20052;-66
2021/04/26 06:53:40;;;;;;;11.40;5.30;;;9.60;44.60;;;;;;5044235;28;20041;-66
2021/04/26 06:56:05;;;;;;;13.73;5.53;;;9.80;44.60;;;;;;5043050;28;20088;-66
2021/04/26 06:58:31;;;;;;;12.93;5.80;;;10.10;44.90;;;;;;5042762;28;20026;-66
2021/04/26 07:00:57;;;;;;;10.68;5.20;;;10.30;44.20;;;;;;5046921;28;20092;-66
2021/04/26 07:03:22;;;;;;;13.32;5.20;;;10.40;43.70;;;;;;5063283;28;20079;-66
2021/04/26 07:05:48;;;;;;;10.82;5.38;;;10.60;44.10;;;;;;5062578;28;20033;-66
2021/04/26 07:08:13;;;;;;;10.43;4.78;;;10.60;43.40;;;;;;5062935;28;20036;-67
2021/04/26 07:10:39;;;;;;;13.90;5.50;;;10.60;43.40;;;;;;5061548;28;20041;-66
2021/04/26 07:13:05;;;;;;;15.23;5.20;;;10.80;42.80;;;;;;5061821;28;20032;-68
2021/04/26 07:15:31;;;;;;;9.70;5.93;;;10.90;42.90;;;;;;5061996;28;20032;-66
2021/04/26 07:17:56;;;;;;;13.05;6.82;;;11.10;42.10;;;;;;5063142;28;20029;-66
2021/04/26 07:20:22;;;;;;;11.30;6.57;;;11.80;42.30;;;;;;5046264;28;20092;-66
2021/04/26 07:22:47;;;;;;;16.73;7.32;;;12.70;40.90;;;;;;5053316;28;20104;-66
2021/04/26 07:25:13;;;;;;;12.13;5.18;;;13.60;40.20;;;;;;5060885;28;20239;-66
2021/04/26 07:27:39;;;;;;;9.77;5.60;;;14.40;38.70;;;;;;5060280;28;20029;-66
2021/04/26 07:30:05;;;;;;;13.48;6.45;;;14.90;37.60;;;;;;5044467;28;20041;-66
2021/04/26 07:32:31;;;;;;;9.60;5.45;;;15.30;36.10;;;;;;5024592;28;20155;-66
2021/04/26 07:34:56;;;;;;;9.68;4.75;;;15.60;35.50;;;;;;5053621;28;20185;-66
2021/04/26 07:37:22;;;;;;;8.43;4.18;;;15.70;34.30;;;;;;5060382;28;20040;-66
2021/04/26 07:39:47;;;;;;;8.55;4.35;;;15.70;34.40;;;;;;5059675;28;20124;-65
2021/04/26 07:42:13;;;;;;;6.70;4.20;;;15.50;33.40;;;;;;5043170;28;20096;-66
2021/04/26 07:44:39;;;;;;;10.02;4.55;;;15.40;33.90;;;;;;5059652;28;20043;-69
2021/04/26 07:47:04;;;;;;;8.52;4.25;;;15.30;33.60;;;;;;5061609;28;20056;-67
2021/04/26 07:49:30;;;;;;;9.07;4.57;;;15.20;34.00;;;;;;5062304;28;20041;-69
2021/04/26 07:51:55;;;;;;;8.70;4.30;;;15.10;34.40;;;;;;5062019;28;20189;-73
2021/04/26 07:54:21;;;;;;;19.35;4.90;;;15.00;35.30;;;;;;5064160;28;20100;-73
2021/04/26 07:56:46;;;;;;;8.48;4.57;;;15.00;35.80;;;;;;5042944;28;20064;-73
2021/04/26 07:59:12;;;;;;;8.65;4.47;;;15.00;35.20;;;;;;5035868;28;20040;-72
2021/04/26 08:01:37;;;;;;;8.93;4.22;;;14.90;35.60;;;;;;5041733;28;20037;-72
2021/04/26 08:04:03;;;;;;;8.23;4.38;;;15.00;35.40;;;;;;5044567;28;20037;-73
2021/04/26 08:06:29;;;;;;;7.75;4.47;;;15.00;35.00;;;;;;5047064;28;20313;-68
2021/04/26 08:08:54;;;;;;;10.85;4.85;;;14.90;34.10;;;;;;5067797;28;20036;-70
2021/04/26 08:11:20;;;;;;;11.23;4.82;;;14.90;34.70;;;;;;5065283;28;20037;-68
2021/04/26 08:13:45;;;;;;;8.25;4.72;;;14.90;35.30;;;;;;5066114;28;20037;-68
2021/04/26 08:16:11;;;;;;;7.60;4.70;;;14.90;34.40;;;;;;5059836;28;20038;-68
2021/04/26 08:18:36;;;;;;;14.50;4.50;;;14.90;34.70;;;;;;5046369;28;20025;-67
2021/04/26 08:21:02;;;;;;;10.90;4.15;;;15.00;34.90;;;;;;5067518;28;20076;-69
2021/04/26 08:23:28;;;;;;;14.73;4.47;;;15.20;34.70;;;;;;5031705;28;20044;-70
2021/04/26 08:25:54;;;;;;;7.00;3.97;;;15.20;34.10;;;;;;5045164;28;20033;-69
2021/04/26 08:28:19;;;;;;;8.52;3.88;;;15.20;33.90;;;;;;5052397;28;20044;-70
2021/04/26 08:30:48;;;;;;;10.15;4.50;;;15.30;34.60;;;;;;5064698;28;20029;-68
2021/04/26 08:33:14;;;;;;;8.18;4.25;;;15.40;34.10;;;;;;5050250;28;20036;-69
2021/04/26 08:35:40;;;;;;;9.57;4.30;;;15.50;33.40;;;;;;5044984;28;20211;-69
2021/04/26 08:38:06;;;;;;;9.68;4.85;;;15.50;33.80;;;;;;5059648;28;20041;-70
2021/04/26 08:40:32;;;;;;;8.38;4.20;;;15.40;33.30;;;;;;5064283;28;20033;-69
2021/04/26 08:43:04;;;;;;;11.43;4.05;;;15.60;33.30;;;;;;5064299;28;20037;-69
2021/04/26 08:45:30;;;;;;;8.10;4.18;;;15.50;33.10;;;;;;5064159;28;20036;-70
2021/04/26 08:47:55;;;;;;;11.30;4.32;;;15.60;33.50;;;;;;5047160;28;20104;-69
2021/04/26 08:50:21;;;;;;;9.27;4.60;;;15.60;33.40;;;;;;5028247;28;20045;-70
2021/04/26 08:52:47;;;;;;;8.07;4.47;;;15.60;33.30;;;;;;5035401;28;20041;-69
2021/04/26 08:55:12;;;;;;;11.05;4.43;;;15.60;33.40;;;;;;5050501;28;20037;-72
2021/04/26 08:57:38;;;;;;;10.07;4.35;;;15.70;34.20;;;;;;5047606;28;20033;-69
2021/04/26 09:00:05;;;;;;;11.05;5.18;;;15.80;34.40;;;;;;5066047;28;20048;-71
2021/04/26 09:02:46;;;;;;;9.98;4.80;;;15.80;35.10;;;;;;5047732;28;20371;-67
2021/04/26 09:05:22;;;;;;;12.47;4.97;;;15.90;34.80;;;;;;5050707;28;20320;-68
2021/04/26 09:07:49;;;;;;;10.27;4.90;;;16.00;34.60;;;;;;5044037;28;20044;-68
2021/04/26 09:10:15;;;;;;;14.95;5.05;;;16.10;35.00;;;;;;5050188;28;20105;-67
2021/04/26 09:12:40;;;;;;;10.52;4.40;;;16.20;35.10;;;;;;5064079;28;20228;-67
2021/04/26 09:15:06;;;;;;;10.05;4.82;;;16.30;33.60;;;;;;5066769;28;20075;-67
2021/04/26 09:17:44;;;;;;;7.93;5.03;;;16.30;33.40;;;;;;5063706;28;20108;-67
2021/04/26 09:20:18;;;;;;;13.25;4.50;;;16.40;33.80;;;;;;5050495;28;20112;-70
2021/04/26 09:22:55;;;;;;;8.38;3.97;;;16.40;32.50;;;;;;5055607;28;20307;-71
2021/04/26 09:25:25;;;;;;;14.70;4.50;;;16.30;31.20;;;;;;5063441;28;20094;-71
2021/04/26 09:28:07;;;;;;;12.00;4.50;;;16.40;32.30;;;;;;5047302;28;20088;-70
2021/04/26 09:31:05;;;;;;;9.13;4.53;;;16.40;34.30;;;;;;5063413;28;20031;-71
2021/04/26 09:33:35;;;;;;;9.48;4.30;;;16.50;32.90;;;;;;5059360;28;20155;-72
2021/04/26 09:36:21;;;;;;;7.53;3.80;;;16.40;32.30;;;;;;5046697;28;20056;-68
2021/04/26 09:38:47;;;;;;;7.25;4.25;;;16.60;31.40;;;;;;5044970;28;20100;-64
2021/04/26 09:41:15;;;;;;;8.70;4.10;;;16.60;32.30;;;;;;5059422;28;20037;-67
2021/04/26 09:43:42;;;;;;;10.95;4.55;;;16.70;31.80;;;;;;5054027;28;20041;-66
2021/04/26 09:46:08;;;;;;;9.07;4.32;;;16.80;30.80;;;;;;5044429;28;20034;-67
2021/04/26 09:48:34;;;;;;;10.30;4.93;;;16.70;30.60;;;;;;5044543;28;20047;-70
2021/04/26 09:51:06;;;;;;;7.90;4.43;;;16.70;30.20;;;;;;5028788;28;20044;-71
2021/04/26 09:53:54;;;;;;;8.80;4.20;;;16.80;29.20;;;;;;5044154;28;20355;-71
2021/04/26 09:56:22;;;;;;;10.02;3.90;;;16.70;29.90;;;;;;5058904;28;20029;-72
2021/04/26 09:58:55;;;;;;;7.43;3.70;;;16.80;30.30;;;;;;5053377;28;20034;-68
2021/04/26 10:01:21;;;;;;;8.93;3.97;;;16.80;30.50;;;;;;5026720;28;20355;-67
2021/04/26 10:03:47;;;;;;;8.45;4.22;;;17.10;30.80;;;;;;5028840;28;20111;-68
2021/04/26 10:06:17;;;;;;;6.15;3.78;;;17.30;30.80;;;;;;5066058;28;20033;-68
2021/04/26 10:08:49;;;;;;;12.73;4.18;;;17.40;30.10;;;;;;5044221;28;20041;-69
2021/04/26 10:11:16;;;;;;;9.48;4.85;;;17.40;30.10;;;;;;5058019;28;20112;-68
2021/04/26 10:13:41;;;;;;;7.88;4.40;;;17.50;29.50;;;;;;5053708;28;20044;-67
2021/04/26 10:16:10;;;;;;;10.30;4.55;;;17.60;29.50;;;;;;5042494;28;20049;-67
2021/04/26 10:18:37;;;;;;;9.38;4.53;;;17.60;29.30;;;;;;5009992;28;20025;-67
2021/04/26 10:21:04;;;;;;;9.50;4.50;;;17.60;29.70;;;;;;5044283;28;20056;-67
2021/04/26 10:23:33;;;;;;;10.10;4.20;;;17.80;30.30;;;;;;5043921;28;20100;-68
2021/04/26 10:25:59;;;;;;;9.88;3.95;;;17.80;29.70;;;;;;5056017;28;20112;-71
2021/04/26 10:28:29;;;;;;;11.30;4.63;;;17.80;29.60;;;;;;5037900;28;20332;-70
2021/04/26 10:31:04;;;;;;;10.40;4.57;;;17.80;29.80;;;;;;5042565;28;20313;-67
2021/04/26 10:33:56;;;;;;;9.15;4.35;;;17.90;29.80;;;;;;5026119;28;20052;-71
2021/04/26 10:36:40;;;;;;;11.25;4.25;;;17.90;29.30;;;;;;5065064;28;20048;-68
2021/04/26 10:39:16;;;;;;;9.77;4.10;;;18.10;30.50;;;;;;5064412;28;20037;-68
2021/04/26 10:41:53;;;;;;;6.65;3.80;;;18.10;29.10;;;;;;5063926;28;20051;-73
2021/04/26 10:44:37;;;;;;;8.70;4.35;;;18.20;29.90;;;;;;5063072;28;20040;-71
2021/04/26 10:47:33;;;;;;;8.82;4.20;;;18.20;29.10;;;;;;5062163;28;20041;-67
2021/04/26 10:50:02;;;;;;;8.93;4.47;;;18.30;28.40;;;;;;5046130;28;20052;-71
2021/04/26 10:52:28;;;;;;;8.93;4.65;;;18.20;29.00;;;;;;5051467;28;20029;-70
2021/04/26 10:54:58;;;;;;;6.95;4.30;;;18.30;29.60;;;;;;5059264;28;20037;-70
2021/04/26 10:57:33;;;;;;;7.03;4.00;;;18.30;28.50;;;;;;5027567;28;20049;-71
2021/04/26 11:00:29;;;;;;;8.73;4.40;;;18.40;29.30;;;;;;5043588;28;20026;-71
2021/04/26 11:02:56;;;;;;;8.60;4.38;;;18.50;31.00;;;;;;5063240;28;20033;-70
2021/04/26 11:05:25;;;;;;;10.02;4.03;;;18.50;29.20;;;;;;5042287;28;20117;-71
2021/04/26 11:08:03;;;;;;;8.52;4.18;;;18.50;29.40;;;;;;5054944;28;20036;-74
2021/04/26 11:10:29;;;;;;;8.40;3.95;;;18.60;29.30;;;;;;5061729;28;20033;-70
2021/04/26 11:12:55;;;;;;;11.05;4.30;;;18.60;29.50;;;;;;5044938;28;20038;-69
2021/04/26 11:15:23;;;;;;;9.88;3.70;;;18.60;28.70;;;;;;5030362;28;20021;-71
2021/04/26 11:17:48;;;;;;;12.75;4.28;;;18.70;28.60;;;;;;5042840;28;20029;-70
2021/04/26 11:20:15;;;;;;;12.40;4.30;;;18.80;28.00;;;;;;5041758;28;20113;-72
2021/04/26 11:22:41;;;;;;;7.45;3.88;;;18.80;27.20;;;;;;5032066;28;20093;-71
2021/04/26 11:25:08;;;;;;;8.60;4.35;;;18.70;27.40;;;;;;5047163;28;20025;-72
2021/04/26 11:27:34;;;;;;;8.88;4.10;;;18.70;27.00;;;;;;5060196;28;20029;-71
2021/04/26 11:29:59;;;;;;;7.28;4.00;;;18.60;27.00;;;;;;5044318;28;20214;-72
2021/04/26 11:32:25;;;;;;;10.25;5.07;;;18.70;28.40;;;;;;5043049;28;20040;-72
2021/04/26 11:34:53;;;;;;;8.27;4.30;;;18.70;28.70;;;;;;5053276;28;20108;-72
2021/04/26 11:37:29;;;;;;;7.30;3.78;;;18.80;27.50;;;;;;5061679;28;20092;-72
2021/04/26 11:39:55;;;;;;;6.85;3.78;;;18.80;27.90;;;;;;5057873;28;20045;-73
2021/04/26 11:42:31;;;;;;;10.13;3.88;;;18.80;27.20;;;;;;5043119;28;20098;-71
2021/04/26 11:44:57;;;;;;;15.05;4.07;;;18.90;26.30;;;;;;5041728;28;20025;-73
2021/04/26 11:47:23;;;;;;;7.22;3.50;;;19.00;27.10;;;;;;5025316;28;20040;-71
2021/04/26 11:49:53;;;;;;;7.55;3.55;;;19.00;27.80;;;;;;5052473;28;20033;-67
2021/04/26 11:52:25;;;;;;;7.88;3.97;;;19.10;26.70;;;;;;5061161;28;20044;-71
2021/04/26 11:55:08;;;;;;;5.70;3.45;;;19.00;25.90;;;;;;5060946;28;20371;-70
2021/04/26 11:57:48;;;;;;;7.55;4.28;;;19.10;27.00;;;;;;5045375;28;20021;-67
2021/04/26 12:00:25;;;;;;;6.97;3.65;;;19.10;26.70;;;;;;5063065;28;20056;-69
2021/04/26 12:02:51;;;;;;;7.40;3.72;;;19.20;26.00;;;;;;5024655;28;20282;-68
2021/04/26 12:05:22;;;;;;;7.05;3.78;;;19.30;27.00;;;;;;5042326;28;20044;-69
2021/04/26 12:07:48;;;;;;;8.32;3.97;;;19.30;25.80;;;;;;5052065;28;20037;-71
2021/04/26 12:10:17;;;;;;;6.53;3.50;;;19.30;26.50;;;;;;5054385;28;20025;-70
2021/04/26 12:12:43;;;;;;;6.97;3.72;;;19.20;25.10;;;;;;5026726;28;20093;-69
2021/04/26 12:15:19;;;;;;;6.55;3.30;;;19.20;25.00;;;;;;5062850;28;20255;-68
2021/04/26 12:17:49;;;;;;;5.82;3.42;;;19.10;25.20;;;;;;5042302;28;20363;-67
2021/04/26 12:20:19;;;;;;;5.88;3.50;;;19.20;25.80;;;;;;5057046;28;20061;-68
2021/04/26 12:22:46;;;;;;;5.27;3.30;;;19.30;24.40;;;;;;5051347;28;20046;-68
2021/04/26 12:25:12;;;;;;;5.32;3.35;;;19.30;24.70;;;;;;5041354;28;20030;-68
2021/04/26 12:27:37;;;;;;;6.22;3.97;;;19.30;24.10;;;;;;5043575;28;20343;-68
2021/04/26 12:30:20;;;;;;;5.60;3.63;;;19.30;24.20;;;;;;5062761;28;20044;-68
2021/04/26 12:32:46;;;;;;;7.03;3.42;;;19.30;23.60;;;;;;5062359;28;20320;-68
2021/04/26 12:35:13;;;;;;;5.47;3.25;;;19.20;23.20;;;;;;5046186;28;20101;-67
2021/04/26 12:37:41;;;;;;;8.57;3.83;;;19.20;23.90;;;;;;5051651;28;20044;-67
2021/04/26 12:40:22;;;;;;;6.93;3.42;;;19.30;24.40;;;;;;5054784;28;20030;-66
2021/04/26 12:43:09;;;;;;;5.70;3.78;;;19.40;23.30;;;;;;5044980;28;20044;-66
2021/04/26 12:45:43;;;;;;;11.15;3.63;;;19.30;24.60;;;;;;5061442;28;20058;-67
2021/04/26 12:48:09;;;;;;;7.85;3.33;;;19.40;23.00;;;;;;5063270;28;20025;-67
2021/04/26 12:50:36;;;;;;;6.85;3.67;;;19.30;23.60;;;;;;5065239;28;20041;-68